Time;durP1;ratioP1;P1;durP2;ratioP2;P2;SDS_P1;SDS_P2;PMS_P1;PMS_P2;Temp;Humidity;BMP_temperature;BMP_pressure;BME280_temperature;BME280_humidity;BME280_pressure;Samples;Min_cycle;Max_cycle;Signal;HPM_P1;HPM_P2
2021/04/20 00:00:56;;;;;;;50.78;28.75;;;;;;;6.04;84.10;99106.92;1799066;79;21008;-80
2021/04/20 00:03:25;;;;;;;54.13;29.98;;;;;;;6.04;84.23;99110.20;1799107;79;21009;-80
2021/04/20 00:05:52;;;;;;;55.33;29.85;;;;;;;6.02;84.27;99100.15;1796257;79;21147;-81
2021/04/20 00:08:22;;;;;;;56.53;30.40;;;;;;;6.01;84.27;99101.25;1799225;79;21476;-85
2021/04/20 00:10:50;;;;;;;56.60;30.35;;;;;;;6.00;84.32;99103.17;1799037;79;21375;-85
2021/04/20 00:13:17;;;;;;;54.93;29.55;;;;;;;6.00;84.35;99097.72;1799008;79;20954;-84
2021/04/20 00:15:46;;;;;;;53.48;29.70;;;;;;;6.01;84.33;99101.25;1799106;79;20957;-82
2021/04/20 00:18:13;;;;;;;53.87;30.97;;;;;;;6.00;84.39;99099.09;1799088;79;21061;-84
2021/04/20 00:20:40;;;;;;;56.25;28.65;;;;;;;6.01;84.51;99100.70;1799123;79;20930;-84
2021/04/20 00:23:08;;;;;;;50.25;29.07;;;;;;;6.01;84.77;99094.45;1799051;79;21468;-85
2021/04/20 00:25:36;;;;;;;50.67;29.25;;;;;;;6.01;84.80;99089.80;1798951;79;20934;-85
2021/04/20 00:28:04;;;;;;;51.77;29.82;;;;;;;5.99;84.95;99086.56;1801612;79;20942;-85
2021/04/20 00:30:32;;;;;;;51.80;27.42;;;;;;;5.94;85.07;99075.20;1801711;79;20918;-83
2021/04/20 00:32:59;;;;;;;46.80;27.80;;;;;;;5.95;85.22;99076.00;1801640;79;20962;-85
2021/04/20 00:35:27;;;;;;;50.38;28.57;;;;;;;5.96;85.34;99077.07;1801626;79;21369;-80
2021/04/20 00:37:55;;;;;;;49.83;27.90;;;;;;;5.95;85.59;99076.00;1774578;79;21535;-82
2021/04/20 00:40:22;;;;;;;46.50;26.45;;;;;;;5.95;85.93;99076.00;1787008;79;20905;-84
2021/04/20 00:42:57;;;;;;;46.42;25.52;;;;;;;5.97;86.08;99072.43;1769300;81;21503;-84
2021/04/20 00:45:29;;;;;;;43.78;25.57;;;;;;;5.99;85.90;99072.13;1769338;81;21506;-83
2021/04/20 00:47:57;;;;;;;48.30;25.05;;;;;;;5.99;85.65;99076.22;1769302;79;21383;-83
2021/04/20 00:50:28;;;;;;;41.60;23.40;;;;;;;5.95;85.60;99067.83;1769111;81;21131;-84
2021/04/20 00:52:56;;;;;;;40.57;23.43;;;;;;;5.95;85.62;99069.19;1769497;80;20977;-84
2021/04/20 00:55:24;;;;;;;46.80;22.67;;;;;;;5.95;85.67;99063.74;1769312;79;21024;-84
2021/04/20 00:57:52;;;;;;;37.30;21.35;;;;;;;5.95;85.90;99056.37;1769290;81;21067;-84
2021/04/20 01:00:26;;;;;;;34.90;22.20;;;;;;;5.97;85.95;99047.91;1769312;81;21201;-83
2021/04/20 01:02:53;;;;;;;38.98;22.85;;;;;;;5.97;85.80;99046.55;1769064;81;21055;-86
2021/04/20 01:05:25;;;;;;;41.10;23.62;;;;;;;5.95;85.79;99038.67;1769172;81;20949;-84
2021/04/20 01:07:59;;;;;;;38.75;20.72;;;;;;;5.95;85.93;99035.95;1769066;79;21078;-83
2021/04/20 01:10:27;;;;;;;37.00;21.37;;;;;;;5.95;85.97;99044.12;1769317;79;21538;-83
2021/04/20 01:12:54;;;;;;;38.90;22.37;;;;;;;5.94;86.05;99035.69;1769159;81;21375;-84
2021/04/20 01:15:22;;;;;;;41.02;23.38;;;;;;;5.92;86.09;99031.64;1766199;79;21087;-83
2021/04/20 01:17:49;;;;;;;39.42;22.37;;;;;;;5.92;86.26;99024.83;1769183;81;20928;-82
2021/04/20 01:20:17;;;;;;;38.98;22.40;;;;;;;5.91;86.56;99024.58;1769160;79;21562;-84
2021/04/20 01:22:46;;;;;;;41.30;22.87;;;;;;;5.91;86.66;99019.94;1769116;79;21016;-80
2021/04/20 01:25:14;;;;;;;44.13;23.87;;;;;;;5.91;86.81;99019.13;1771055;80;22040;-80
2021/04/20 01:27:42;;;;;;;37.85;22.27;;;;;;;5.91;86.95;99016.41;1767859;81;20966;-80
2021/04/20 01:30:11;;;;;;;41.92;23.15;;;;;;;5.90;87.06;99020.23;1778963;80;21160;-81
2021/04/20 01:32:39;;;;;;;47.10;26.00;;;;;;;5.89;87.24;99013.17;1740910;81;21065;-80
2021/04/20 01:35:10;;;;;;;52.90;28.45;;;;;;;5.86;87.30;99007.73;1779043;80;20978;-81
2021/04/20 01:37:38;;;;;;;49.98;26.85;;;;;;;5.85;86.94;99005.30;1770789;81;21214;-80
2021/04/20 01:40:07;;;;;;;50.65;26.48;;;;;;;5.83;86.90;99002.87;1778972;80;21121;-80
2021/04/20 01:42:34;;;;;;;47.43;26.95;;;;;;;5.80;86.80;98998.02;1770757;81;21206;-81
2021/04/20 01:45:10;;;;;;;45.88;25.40;;;;;;;5.79;86.98;99003.22;1779060;80;21454;-81
2021/04/20 01:47:37;;;;;;;45.63;24.23;;;;;;;5.75;87.06;98988.60;1770919;81;21107;-83
2021/04/20 01:50:06;;;;;;;46.28;25.55;;;;;;;5.80;87.25;98999.94;1779079;80;21533;-83
2021/04/20 01:52:34;;;;;;;40.78;22.48;;;;;;;5.79;87.23;98989.59;1770660;81;21033;-83
2021/04/20 01:55:02;;;;;;;38.10;22.13;;;;;;;5.78;87.12;98992.06;1778975;80;21081;-81
2021/04/20 01:57:30;;;;;;;37.45;21.62;;;;;;;5.75;87.01;98984.52;1770744;81;21052;-81
2021/04/20 01:59:57;;;;;;;41.08;22.30;;;;;;;5.72;86.84;98988.39;1770778;81;20997;-81
2021/04/20 02:02:25;;;;;;;43.65;20.88;;;;;;;5.67;86.80;98985.75;1779108;80;21533;-82
2021/04/20 02:04:52;;;;;;;35.23;21.27;;;;;;;5.60;86.70;98986.13;1770732;81;21092;-80
2021/04/20 02:07:21;;;;;;;36.30;19.77;;;;;;;5.52;86.69;98985.43;1778977;80;20891;-80
2021/04/20 02:09:48;;;;;;;37.20;19.82;;;;;;;5.44;86.78;98976.58;1770721;81;21155;-83
2021/04/20 02:12:16;;;;;;;34.63;20.65;;;;;;;5.36;86.80;98978.05;1740541;81;21135;-79
2021/04/20 02:14:43;;;;;;;34.33;20.12;;;;;;;5.28;86.87;98984.96;1778950;80;22228;-85
2021/04/20 02:17:11;;;;;;;33.33;20.32;;;;;;;5.21;86.97;98983.16;1770809;81;21100;-82
2021/04/20 02:19:38;;;;;;;38.00;20.17;;;;;;;5.14;87.13;98981.94;1811894;79;21051;-82
2021/04/20 02:22:05;;;;;;;38.33;20.43;;;;;;;5.07;87.27;98982.30;1811745;79;21029;-82
2021/04/20 02:24:33;;;;;;;34.63;19.73;;;;;;;4.98;87.40;98979.42;1811784;79;21038;-82
2021/04/20 02:27:01;;;;;;;36.20;19.80;;;;;;;4.89;87.50;98982.53;1811659;79;21257;-85
2021/04/20 02:29:28;;;;;;;32.63;18.67;;;;;;;4.81;87.54;98982.38;1811821;79;20938;-85
2021/04/20 02:31:56;;;;;;;37.80;19.50;;;;;;;4.73;87.78;98981.66;1811909;79;21129;-85
2021/04/20 02:34:24;;;;;;;36.55;20.45;;;;;;;4.55;87.62;98973.20;1811891;79;21010;-85
2021/04/20 02:36:54;;;;;;;32.28;19.50;;;;;;;4.55;87.62;98973.20;1811916;79;21146;-83
2021/04/20 02:39:21;;;;;;;36.53;19.87;;;;;;;4.43;87.64;98976.86;1811961;79;21364;-83
2021/04/20 02:41:50;;;;;;;33.53;18.90;;;;;;;4.18;87.99;98967.62;1783191;79;21500;-80
2021/04/20 02:44:18;;;;;;;34.48;20.32;;;;;;;4.09;87.91;98969.34;1811912;79;20931;-79
2021/04/20 02:46:46;;;;;;;40.65;19.92;;;;;;;3.99;88.33;98963.50;1811923;79;21096;-79
2021/04/20 02:49:14;;;;;;;38.60;20.68;;;;;;;3.99;88.33;98963.50;1811955;78;21628;-80
2021/04/20 02:51:42;;;;;;;34.25;20.45;;;;;;;3.90;88.57;98961.95;1812072;79;21200;-80
2021/04/20 02:54:10;;;;;;;32.98;20.40;;;;;;;3.81;88.87;98962.30;1782933;79;21508;-80
2021/04/20 02:56:38;;;;;;;42.05;21.68;;;;;;;3.73;89.14;98965.63;1809177;79;20942;-80
2021/04/20 02:59:07;;;;;;;39.88;21.82;;;;;;;3.65;89.51;98969.77;1782903;79;21121;-79
2021/04/20 03:01:37;;;;;;;41.18;22.77;;;;;;;3.62;89.86;98967.62;1812037;79;21528;-80
2021/04/20 03:04:05;;;;;;;43.52;22.85;;;;;;;3.58;90.13;98965.76;1811967;79;21551;-80
2021/04/20 03:06:32;;;;;;;43.52;23.35;;;;;;;3.55;90.74;98960.90;1782810;79;20943;-80
2021/04/20 03:09:00;;;;;;;44.95;23.45;;;;;;;3.52;90.79;98962.82;1811859;78;21057;-80
2021/04/20 03:11:36;;;;;;;43.75;23.73;;;;;;;3.48;90.96;98956.34;1782756;79;21089;-81
2021/04/20 03:14:05;;;;;;;39.73;23.15;;;;;;;3.46;91.17;98962.63;1812025;79;21612;-81
2021/04/20 03:16:34;;;;;;;40.15;22.32;;;;;;;3.43;91.28;98958.58;1811909;79;21358;-81
2021/04/20 03:19:04;;;;;;;43.13;23.80;;;;;;;3.42;91.57;98953.44;1811863;78;20954;-81
2021/04/20 03:21:32;;;;;;;45.20;24.25;;;;;;;3.39;91.74;98953.45;1811952;79;20911;-81
2021/04/20 03:24:02;;;;;;;42.33;23.42;;;;;;;3.39;91.93;98952.64;1811857;79;20942;-80
2021/04/20 03:26:39;;;;;;;42.67;22.75;;;;;;;3.38;92.15;98951.83;1812071;78;21427;-81
2021/04/20 03:29:09;;;;;;;42.43;23.85;;;;;;;3.38;92.35;98953.19;1812680;78;21423;-79
2021/04/20 03:31:38;;;;;;;40.33;23.40;;;;;;;3.41;92.56;98949.91;1812501;79;20986;-81
2021/04/20 03:34:14;;;;;;;54.77;25.32;;;;;;;3.43;92.74;98956.41;1812490;79;21113;-81
2021/04/20 03:36:47;;;;;;;47.15;25.05;;;;;;;3.49;93.15;98952.53;1812513;79;20942;-81
2021/04/20 03:39:19;;;;;;;50.83;28.45;;;;;;;3.55;93.45;98957.64;1812507;79;21140;-88
2021/04/20 03:42:04;;;;;;;;;;;;;;;3.62;93.87;98955.41;1815310;79;21368;-87
2021/04/20 03:44:49;;;;;;;56.45;28.47;;;;;;;3.74;94.47;98961.02;1798241;79;20216;-82
2021/04/20 03:47:41;;;;;;;69.00;30.35;;;;;;;3.88;94.96;98957.90;1812551;79;21100;-82
2021/04/20 03:50:13;;;;;;;65.87;30.12;;;;;;;4.02;95.24;98956.69;1812407;79;21073;-81
2021/04/20 03:52:44;;;;;;;58.60;29.02;;;;;;;4.15;95.37;98950.55;1812741;78;21065;-81
2021/04/20 03:55:17;;;;;;;73.35;31.33;;;;;;;4.30;94.86;98955.81;1812423;79;21187;-81
2021/04/20 03:57:45;;;;;;;85.25;32.50;;;;;;;4.30;94.86;98955.81;1812459;79;20988;-81
2021/04/20 04:00:14;;;;;;;62.75;28.60;;;;;;;4.38;95.06;98955.73;1812516;79;21473;-85
2021/04/20 04:02:43;;;;;;;51.65;27.07;;;;;;;4.46;95.08;98955.91;1812398;79;20919;-82
2021/04/20 04:05:17;;;;;;;43.52;21.73;;;;;;;4.74;96.26;98954.72;1808324;79;21051;-89
2021/04/20 04:07:47;;;;;;;35.58;21.65;;;;;;;4.74;96.26;98954.72;1797046;79;21378;-83
2021/04/20 04:10:14;;;;;;;31.85;20.25;;;;;;;4.90;96.42;98948.80;1790440;79;21124;-85
2021/04/20 04:12:42;;;;;;;33.83;19.52;;;;;;;5.09;96.53;98948.00;1791367;79;21114;-83
2021/04/20 04:15:11;;;;;;;37.40;19.73;;;;;;;5.23;96.37;98946.94;1786097;79;21088;-85
2021/04/20 04:17:41;;;;;;;31.10;19.27;;;;;;;5.39;96.20;98948.06;1766817;81;21080;-82
2021/04/20 04:20:12;;;;;;;28.42;18.05;;;;;;;5.52;96.20;98939.95;1766883;81;21206;-87
2021/04/20 04:22:51;;;;;;;28.32;17.07;;;;;;;5.62;95.44;98938.43;1766843;81;20953;-79
2021/04/20 04:25:22;;;;;;;34.60;19.02;;;;;;;5.76;94.95;98936.30;1755159;81;21072;-80
2021/04/20 04:27:50;;;;;;;34.70;18.37;;;;;;;5.85;94.27;98939.93;1757499;80;21060;-83
2021/04/20 04:30:20;;;;;;;33.95;19.67;;;;;;;5.92;93.82;98939.83;1783567;80;21158;-85
2021/04/20 04:32:49;;;;;;;37.63;20.17;;;;;;;6.00;93.31;98940.25;1783780;80;21507;-80
2021/04/20 04:35:17;;;;;;;30.02;19.57;;;;;;;6.06;92.92;98939.05;1783367;80;21164;-80
2021/04/20 04:37:47;;;;;;;33.65;19.32;;;;;;;6.10;92.56;98940.87;1783463;80;21604;-81
2021/04/20 04:40:17;;;;;;;32.73;18.87;;;;;;;6.15;92.37;98939.97;1783529;80;21547;-85
2021/04/20 04:42:44;;;;;;;31.93;18.60;;;;;;;6.21;92.12;98944.22;1783488;80;21010;-85
2021/04/20 04:45:13;;;;;;;32.70;18.98;;;;;;;6.27;91.97;98938.92;1783418;80;21366;-82
2021/04/20 04:47:42;;;;;;;33.23;19.12;;;;;;;6.31;91.63;98942.66;1783521;80;21493;-82
2021/04/20 04:50:10;;;;;;;32.30;17.37;;;;;;;6.37;91.72;98941.42;1783454;80;20926;-78
2021/04/20 04:52:39;;;;;;;33.30;19.07;;;;;;;6.44;91.51;98941.83;1783234;80;20943;-82
2021/04/20 04:55:18;;;;;;;37.33;19.42;;;;;;;6.55;91.22;98935.62;1844550;77;23375;-85
2021/04/20 04:57:46;;;;;;;30.65;18.73;;;;;;;6.57;90.61;98938.29;1822326;78;21031;-85
2021/04/20 05:00:16;;;;;;;33.33;19.65;;;;;;;6.61;90.18;98928.39;1823442;78;21467;-84
2021/04/20 05:02:43;;;;;;;29.72;18.95;;;;;;;6.63;89.61;98924.80;1823397;78;20991;-84
2021/04/20 05:05:14;;;;;;;35.05;20.00;;;;;;;6.67;89.51;98931.02;1823498;78;21647;-85
2021/04/20 05:07:42;;;;;;;27.80;17.75;;;;;;;6.70;89.38;98925.75;1823779;78;21027;-85
2021/04/20 05:10:13;;;;;;;30.65;18.17;;;;;;;6.76;89.41;98914.98;1806472;78;20999;-84
2021/04/20 05:12:42;;;;;;;33.30;18.52;;;;;;;6.84;89.20;98912.91;1791536;80;21364;-85
2021/04/20 05:15:13;;;;;;;32.48;17.98;;;;;;;6.91;88.92;98917.94;1791321;79;21031;-84
2021/04/20 05:17:42;;;;;;;29.18;18.30;;;;;;;6.98;88.40;98914.77;1791565;79;20983;-84
2021/04/20 05:20:17;;;;;;;28.25;18.45;;;;;;;7.04;88.29;98918.99;1791462;80;21149;-84
2021/04/20 05:22:47;;;;;;;29.25;17.85;;;;;;;7.11;88.35;98921.55;1791442;80;21072;-84
2021/04/20 05:25:18;;;;;;;27.77;17.02;;;;;;;7.19;88.02;98914.00;1791398;80;22291;-84
2021/04/20 05:27:49;;;;;;;30.00;16.87;;;;;;;7.26;87.58;98913.02;1791355;79;20943;-84
2021/04/20 05:30:18;;;;;;;30.05;17.67;;;;;;;7.32;86.99;98918.35;1791394;80;20912;-84
2021/04/20 05:32:49;;;;;;;29.75;19.95;;;;;;;7.38;86.80;98920.66;1791368;79;20948;-85
2021/04/20 05:35:15;;;;;;;28.98;18.35;;;;;;;7.45;86.21;98917.49;1791393;80;20947;-84
2021/04/20 05:37:43;;;;;;;30.15;19.52;;;;;;;7.50;85.88;98923.64;1791431;80;22223;-85
2021/04/20 05:40:25;;;;;;;33.95;19.05;;;;;;;7.55;85.49;98916.66;1791329;80;20931;-85
2021/04/20 05:42:55;;;;;;;29.15;19.57;;;;;;;7.60;84.92;98915.72;1791441;80;21015;-84
2021/04/20 05:45:22;;;;;;;28.07;18.65;;;;;;;7.63;84.80;98914.55;1762561;80;21038;-85
2021/04/20 05:47:53;;;;;;;34.15;18.95;;;;;;;7.69;84.76;98904.85;1791373;80;21034;-85
2021/04/20 05:50:28;;;;;;;31.05;18.80;;;;;;;7.78;84.31;98910.63;1791352;80;21395;-85
2021/04/20 05:52:59;;;;;;;30.50;18.62;;;;;;;7.82;84.15;98906.70;1791438;80;21478;-85
2021/04/20 05:55:28;;;;;;;30.00;17.82;;;;;;;7.91;84.04;98908.92;1783744;80;20940;-85
2021/04/20 05:57:55;;;;;;;29.65;18.65;;;;;;;8.02;84.04;98908.91;1783287;80;20892;-85
2021/04/20 06:00:24;;;;;;;31.33;18.85;;;;;;;8.13;83.69;98910.22;1783371;80;21554;-83
2021/04/20 06:02:53;;;;;;;26.65;18.02;;;;;;;8.26;83.34;98905.77;1783232;80;21376;-85
2021/04/20 06:05:23;;;;;;;30.23;17.87;;;;;;;8.40;82.78;98907.86;1783089;80;21507;-85
2021/04/20 06:08:00;;;;;;;33.23;19.70;;;;;;;8.53;81.78;98902.03;1782837;80;21034;-85
2021/04/20 06:10:30;;;;;;;29.52;18.75;;;;;;;8.70;81.52;98903.41;1782670;79;20999;-84
2021/04/20 06:12:58;;;;;;;29.77;17.45;;;;;;;8.90;80.95;98900.64;1782773;80;20928;-85
2021/04/20 06:15:26;;;;;;;23.12;15.38;;;;;;;9.11;80.23;98899.45;1782595;80;21210;-85
2021/04/20 06:17:55;;;;;;;24.77;14.87;;;;;;;9.25;79.19;98892.66;1782719;80;20999;-85
2021/04/20 06:20:23;;;;;;;25.62;14.38;;;;;;;9.36;78.08;98890.97;1782805;80;21543;-85
2021/04/20 06:22:54;;;;;;;20.43;13.70;;;;;;;9.42;77.90;98887.73;1782694;80;21011;-85
2021/04/20 06:25:22;;;;;;;26.00;15.90;;;;;;;9.51;77.39;98881.69;1782798;80;21590;-85
2021/04/20 06:27:50;;;;;;;27.85;15.58;;;;;;;9.64;76.75;98881.83;1782674;80;21331;-84
2021/04/20 06:30:19;;;;;;;24.43;15.70;;;;;;;9.71;76.32;98892.53;1782665;80;20948;-84
2021/04/20 06:32:47;;;;;;;20.80;14.63;;;;;;;9.79;76.04;98882.69;1752421;80;21495;-84
2021/04/20 06:35:19;;;;;;;25.85;14.50;;;;;;;9.93;75.85;98881.33;1782657;80;20928;-83
2021/04/20 06:37:49;;;;;;;25.80;15.85;;;;;;;10.04;74.57;98879.60;1782767;80;20924;-83
2021/04/20 06:40:27;;;;;;;26.27;16.52;;;;;;;10.10;73.62;98883.20;1782701;80;21231;-83
2021/04/20 06:43:00;;;;;;;24.80;15.55;;;;;;;10.16;73.54;98878.34;1781055;80;20960;-83
2021/04/20 06:45:45;;;;;;;20.77;13.85;;;;;;;10.19;73.94;98873.58;1782688;80;21057;-82
2021/04/20 06:48:50;;;;;;;23.75;13.88;;;;;;;10.28;72.84;98870.83;1782082;80;21106;-82
2021/04/20 06:51:23;;;;;;;17.98;12.33;;;;;;;10.38;72.84;98864.41;1673899;84;21514;-82
2021/04/20 06:54:01;;;;;;;17.92;11.40;;;;;;;10.55;71.98;98859.36;1702146;83;21383;-82
2021/04/20 06:56:33;;;;;;;15.35;11.33;;;;;;;10.64;70.63;98862.05;1735331;82;20961;-82
2021/04/20 06:59:18;;;;;;;17.10;12.03;;;;;;;10.77;70.47;98861.00;1732151;82;21142;-82
2021/04/20 07:01:53;;;;;;;20.70;13.00;;;;;;;10.98;69.62;98855.49;1750949;82;20936;-83
2021/04/20 07:04:43;;;;;;;16.42;12.05;;;;;;;11.18;69.93;98851.37;1750974;82;21016;-83
2021/04/20 07:07:42;;;;;;;17.40;9.78;;;;;;;11.33;68.52;98845.02;1751076;82;21582;-83
2021/04/20 07:10:25;;;;;;;16.15;9.90;;;;;;;11.42;65.35;98844.38;1750875;81;21178;-83
2021/04/20 07:12:57;;;;;;;18.12;11.18;;;;;;;11.41;66.09;98842.77;1750976;82;20991;-83
2021/04/20 07:15:25;;;;;;;19.65;11.78;;;;;;;11.46;66.04;98846.11;1750877;82;20940;-83
2021/04/20 07:18:01;;;;;;;16.42;11.60;;;;;;;11.46;65.51;98842.55;1750835;82;20983;-83
2021/04/20 07:21:14;;;;;;;12.68;9.03;;;;;;;11.43;65.40;98845.98;1750986;82;21372;-83
2021/04/20 07:24:02;;;;;;;13.50;9.60;;;;;;;11.42;64.88;98845.75;1740248;82;21042;-83
2021/04/20 07:26:52;;;;;;;12.45;9.85;;;;;;;11.44;65.30;98831.90;1750938;81;20960;-84
2021/04/20 07:29:52;;;;;;;14.00;8.65;;;;;;;11.51;64.73;98839.59;1750916;82;21621;-83
2021/04/20 07:32:37;;;;;;;12.10;8.78;;;;;;;11.63;64.30;98840.98;1750988;82;21213;-83
2021/04/20 07:35:22;;;;;;;11.88;8.53;;;;;;;11.79;63.10;98843.91;1750921;82;21271;-83
2021/04/20 07:38:03;;;;;;;10.90;7.70;;;;;;;11.85;63.13;98833.73;1750931;82;21182;-83
2021/04/20 07:40:45;;;;;;;12.60;8.53;;;;;;;11.85;62.15;98839.23;1750918;82;21146;-83
2021/04/20 07:43:18;;;;;;;9.78;7.33;;;;;;;11.74;61.43;98842.16;1751040;82;21083;-83
2021/04/20 07:46:22;;;;;;;11.50;8.25;;;;;;;11.59;62.06;98842.80;1750949;82;20942;-83
2021/04/20 07:49:07;;;;;;;12.18;7.40;;;;;;;11.41;62.38;98830.40;1750918;82;21801;-83
2021/04/20 07:51:57;;;;;;;11.40;8.18;;;;;;;11.21;62.46;98836.16;1750861;82;20985;-83
2021/04/20 07:54:45;;;;;;;11.20;8.63;;;;;;;11.04;62.85;98837.67;1749034;82;20909;-83
2021/04/20 07:57:25;;;;;;;11.93;8.60;;;;;;;10.88;64.05;98829.27;1744858;82;21027;-84
2021/04/20 08:00:15;;;;;;;13.40;8.75;;;;;;;10.76;64.67;98829.20;1745431;82;21511;-83
2021/04/20 08:03:11;;;;;;;16.32;8.85;;;;;;;10.69;65.02;98828.92;1745340;82;21534;-83
2021/04/20 08:05:57;;;;;;;10.32;7.87;;;;;;;10.67;64.99;98826.51;1742378;82;21035;-83
2021/04/20 08:08:45;;;;;;;11.20;8.38;;;;;;;10.62;65.28;98819.04;1745352;82;21498;-83
2021/04/20 08:11:34;;;;;;;13.22;9.60;;;;;;;10.66;66.31;98815.86;1745327;82;21482;-83
2021/04/20 08:14:32;;;;;;;12.53;9.40;;;;;;;10.68;66.40;98815.77;1721352;82;21115;-83
2021/04/20 08:17:17;;;;;;;14.25;8.85;;;;;;;10.72;66.50;98815.90;1745300;82;21372;-82
2021/04/20 08:19:57;;;;;;;13.65;9.33;;;;;;;10.77;65.87;98814.33;1745267;82;21099;-83
2021/04/20 08:22:26;;;;;;;15.38;9.80;;;;;;;10.82;66.01;98808.64;1745271;82;21075;-84
2021/04/20 08:25:25;;;;;;;13.55;9.28;;;;;;;10.87;65.73;98811.19;1745262;82;21015;-83
2021/04/20 08:28:25;;;;;;;17.00;11.18;;;;;;;10.85;64.86;98813.46;1745433;82;21531;-83
2021/04/20 08:31:06;;;;;;;13.88;9.58;;;;;;;10.77;65.16;98806.09;1782636;80;21470;-83
2021/04/20 08:33:37;;;;;;;15.25;10.08;;;;;;;10.65;64.91;98802.70;1782707;80;21078;-83
2021/04/20 08:36:43;;;;;;;16.62;9.40;;;;;;;10.53;65.54;98807.55;1782882;80;27023;-82
2021/04/20 08:39:21;;;;;;;16.37;10.15;;;;;;;10.46;66.68;98817.44;1782676;80;21000;-82
2021/04/20 08:42:17;;;;;;;14.98;10.10;;;;;;;10.31;67.54;98812.55;1782762;80;21086;-82
2021/04/20 08:45:05;;;;;;;14.78;9.88;;;;;;;10.20;68.67;98809.39;1782668;80;21382;-82
2021/04/20 08:48:07;;;;;;;18.20;9.80;;;;;;;10.10;69.03;98800.12;1782644;80;21621;-83
2021/04/20 08:50:45;;;;;;;13.00;9.10;;;;;;;10.03;69.83;98799.27;1782642;80;20928;-81
2021/04/20 08:53:52;;;;;;;16.75;9.80;;;;;;;10.03;70.25;98799.84;1781061;80;21561;-86
2021/04/20 08:56:50;;;;;;;12.82;9.23;;;;;;;10.01;69.90;98799.36;1748802;80;21141;-85
2021/04/20 08:59:42;;;;;;;13.13;8.85;;;;;;;9.95;70.48;98797.37;1782762;80;22259;-82
2021/04/20 09:02:31;;;;;;;12.10;8.78;;;;;;;9.93;69.70;98797.70;1781189;80;21044;-82
2021/04/20 09:05:24;;;;;;;12.85;8.65;;;;;;;9.92;69.49;98794.72;1862576;75;22729;-82
2021/04/20 09:08:01;;;;;;;14.07;8.50;;;;;;;9.87;69.88;98791.36;1822254;78;21202;-87
2021/04/20 09:10:43;;;;;;;13.75;9.40;;;;;;;9.83;69.98;98791.21;1781465;79;21360;-88
2021/04/20 09:13:20;;;;;;;15.43;9.65;;;;;;;9.79;70.30;98794.41;1774771;79;21075;-87
2021/04/20 09:15:53;;;;;;;13.72;9.75;;;;;;;9.73;70.57;98794.34;1774763;80;21030;-87
2021/04/20 09:18:25;;;;;;;15.63;10.00;;;;;;;9.68;70.82;98790.41;1775530;80;21617;-90
2021/04/20 09:21:25;;;;;;;15.43;10.60;;;;;;;9.66;70.92;98789.13;1909801;74;22331;-84
2021/04/20 09:24:16;;;;;;;15.83;10.45;;;;;;;9.59;71.67;98786.90;1849102;77;20908;-80
2021/04/20 09:26:57;;;;;;;17.00;10.88;;;;;;;9.60;72.24;98784.39;1846743;77;21487;-88
2021/04/20 09:29:39;;;;;;;13.93;10.40;;;;;;;9.65;72.90;98788.89;1849926;77;21082;-80
2021/04/20 09:32:10;;;;;;;15.93;10.78;;;;;;;9.70;72.78;98787.34;1822807;77;20927;-81
2021/04/20 09:34:40;;;;;;;18.10;10.28;;;;;;;9.75;72.87;98785.23;1849928;77;21007;-87
2021/04/20 09:37:07;;;;;;;14.78;9.40;;;;;;;9.85;72.31;98787.58;1819877;77;21581;-84
2021/04/20 09:39:39;;;;;;;21.33;9.90;;;;;;;9.94;72.25;98776.58;1826818;77;21190;-81
2021/04/20 09:42:07;;;;;;;16.20;11.35;;;;;;;10.03;70.63;98769.68;1764990;80;21865;-82
2021/04/20 09:44:47;;;;;;;19.07;10.08;;;;;;;10.15;71.47;98768.41;1843856;77;20935;-83
2021/04/20 09:47:32;;;;;;;12.43;9.33;;;;;;;10.33;71.56;98769.14;1840161;77;21034;-83
2021/04/20 09:50:05;;;;;;;13.93;8.98;;;;;;;10.52;70.58;98760.66;1837339;77;21153;-84
2021/04/20 09:53:31;;;;;;;12.20;9.55;;;;;;;10.67;70.50;98755.71;1836638;77;22669;-84
2021/04/20 09:56:21;;;;;;;12.85;7.83;;;;;;;10.84;69.86;98759.69;1838750;77;21116;-84
2021/04/20 09:58:49;;;;;;;11.22;8.70;;;;;;;11.05;67.93;98744.53;1839985;77;21000;-84
2021/04/20 10:02:00;;;;;;;13.00;9.00;;;;;;;11.28;66.48;98748.49;1844874;77;21604;-83
2021/04/20 10:04:52;;;;;;;13.55;8.48;;;;;;;11.44;65.69;98740.41;1719262;81;21173;-80
2021/04/20 10:07:46;;;;;;;11.18;7.80;;;;;;;11.73;65.39;98740.19;1721186;81;22488;-81
2021/04/20 10:10:49;;;;;;;10.88;8.15;;;;;;;12.02;62.81;98731.52;1807584;76;20928;-85
2021/04/20 10:13:44;;;;;;;10.68;8.63;;;;;;;12.36;63.72;98731.57;1765701;80;21470;-81
2021/04/20 10:16:36;;;;;;;10.08;7.20;;;;;;;12.75;62.93;98723.06;1805083;78;21545;-79
2021/04/20 10:19:28;;;;;;;12.30;6.87;;;;;;;13.00;61.03;98717.69;1802430;78;21067;-79
2021/04/20 10:22:28;;;;;;;9.25;6.28;;;;;;;13.32;59.15;98713.62;1807615;78;21472;-84
2021/04/20 10:25:25;;;;;;;8.03;6.08;;;;;;;13.66;55.70;98705.23;1803954;79;20981;-81
2021/04/20 10:28:07;;;;;;;9.13;6.33;;;;;;;13.71;54.98;98711.87;1802263;78;21163;-82
2021/04/20 10:30:36;;;;;;;8.65;6.00;;;;;;;13.64;54.29;98712.48;1801438;79;21167;-87
2021/04/20 10:33:03;;;;;;;10.25;6.40;;;;;;;13.47;55.00;98716.97;1800869;78;21143;-85
2021/04/20 10:35:36;;;;;;;9.73;6.30;;;;;;;13.19;55.06;98717.85;1802327;79;21702;-83
2021/04/20 10:38:10;;;;;;;8.43;6.78;;;;;;;12.84;56.80;98721.77;1802636;79;21218;-81
2021/04/20 10:40:40;;;;;;;10.08;5.78;;;;;;;12.44;57.96;98725.94;1802792;78;21143;-82
2021/04/20 10:43:15;;;;;;;8.08;5.42;;;;;;;12.07;59.25;98734.84;1805478;78;21129;-82
2021/04/20 10:45:43;;;;;;;9.20;5.35;;;;;;;11.71;60.93;98741.11;1811974;78;21585;-80
2021/04/20 10:48:15;;;;;;;9.10;5.33;;;;;;;11.36;62.66;98745.42;1818777;78;21469;-82
2021/04/20 10:50:48;;;;;;;11.30;5.50;;;;;;;11.06;64.17;98737.89;1819019;78;21098;-87
2021/04/20 10:53:25;;;;;;;10.38;6.30;;;;;;;10.85;65.29;98737.95;1818361;78;21113;-83
2021/04/20 10:56:10;;;;;;;11.25;5.80;;;;;;;10.77;66.04;98741.01;1818516;78;21058;-79
2021/04/20 10:58:47;;;;;;;7.80;5.92;;;;;;;10.76;66.43;98738.60;1818874;78;21589;-84
2021/04/20 11:01:22;;;;;;;8.60;5.33;;;;;;;10.78;66.67;98741.24;1818754;78;21418;-81
2021/04/20 11:03:52;;;;;;;6.62;4.58;;;;;;;10.83;66.63;98735.55;1818193;78;20967;-81
2021/04/20 11:06:38;;;;;;;8.13;5.20;;;;;;;10.87;66.12;98732.36;1818689;78;21050;-82
2021/04/20 11:09:06;;;;;;;5.00;3.90;;;;;;;10.89;64.65;98734.20;1818677;77;21015;-80
2021/04/20 11:11:35;;;;;;;5.12;3.85;;;;;;;10.93;64.07;98732.95;1817806;78;21134;-79
2021/04/20 11:14:03;;;;;;;5.00;3.52;;;;;;;10.97;62.47;98733.09;1818230;78;22374;-79
2021/04/20 11:16:41;;;;;;;3.90;3.17;;;;;;;11.02;62.74;98732.84;1817824;78;21589;-83
2021/04/20 11:19:11;;;;;;;4.70;2.85;;;;;;;11.09;61.72;98739.39;1791959;79;21590;-83
2021/04/20 11:21:44;;;;;;;3.40;2.77;;;;;;;11.17;60.77;98741.25;1816675;78;21138;-82
2021/04/20 11:24:20;;;;;;;3.45;2.60;;;;;;;11.17;60.40;98745.38;1817071;79;21173;-81
2021/04/20 11:26:59;;;;;;;4.05;2.60;;;;;;;11.09;59.21;98742.14;1816932;79;22270;-82
2021/04/20 11:29:34;;;;;;;3.70;2.77;;;;;;;11.04;59.45;98736.86;1816841;79;21640;-82
2021/04/20 11:32:02;;;;;;;4.70;2.90;;;;;;;11.03;59.61;98733.08;1775380;80;21137;-80
2021/04/20 11:34:31;;;;;;;4.20;2.87;;;;;;;11.04;59.97;98736.86;1754038;81;21135;-79
2021/04/20 11:37:05;;;;;;;4.60;2.60;;;;;;;11.05;60.61;98734.34;1724170;80;21569;-81
2021/04/20 11:39:46;;;;;;;4.40;2.67;;;;;;;11.10;60.62;98725.89;1775689;80;21504;-86
2021/04/20 11:45:23;;;;;;;3.85;3.22;;;;;;;11.12;62.11;98722.80;1858893;76;22751;-81
2021/04/20 11:48:11;;;;;;;5.90;3.65;;;;;;;11.12;62.11;98722.80;1836105;77;21507;-87
2021/04/20 11:50:43;;;;;;;8.50;3.37;;;;;;;11.17;61.97;98720.65;1836066;77;22283;-87
2021/04/20 11:53:11;;;;;;;4.80;3.50;;;;;;;11.25;61.79;98716.20;1822638;78;20927;-82
2021/04/20 11:55:44;;;;;;;5.10;3.92;;;;;;;11.32;62.15;98710.16;1831465;77;21496;-81
2021/04/20 11:58:28;;;;;;;6.78;4.60;;;;;;;11.32;62.31;98708.78;1830883;77;21722;-86
2021/04/20 12:01:00;;;;;;;10.63;6.00;;;;;;;11.28;62.56;98713.34;1831499;77;20950;-80
2021/04/20 12:03:30;;;;;;;11.40;6.47;;;;;;;11.22;62.98;98709.45;1834345;77;22305;-87
2021/04/20 12:05:59;;;;;;;6.97;4.92;;;;;;;11.23;63.43;98707.50;1845130;77;20996;-77